Green Pond, Alabama
Current Conditions -  °F | °C
As of 1:53 PM on Thursday 30 Oct 2014 (Local Time) from KEET Reporting Station
Clear Clear  
Wind Chill: 66°   Ceiling: Unl
Heat Index: 66°   Visibility: 10mi
Dew Point: 36°   Wind: 7mph
Humidity: 33%   Direction: NA
Pressure: 30.05"   Gusts: NA
Location:  33.22°N, 87.13°W
Report Text: KEET 301853Z AUTO VRB06KT 10SM CLR 19/02 A3005 RMK AO2 SLP174 T01890022
Loading
Personal Weather Stations






























Interactive Weather Map
Tropical Storm Tracking
New forecast layout! Learn more

10-Day Weather Forecast

Advertisements
Track Severe Weather on mobile